createdAt,value
2019-03-19T00:01:24.745Z,99.90
2019-03-19T00:03:50.754Z,99.90
2019-03-19T00:06:17.066Z,99.90
2019-03-19T00:08:43.076Z,99.90
2019-03-19T00:11:09.101Z,99.90
2019-03-19T00:13:35.442Z,99.90
2019-03-19T00:16:01.457Z,99.90
2019-03-19T00:18:27.792Z,99.90
2019-03-19T00:20:53.881Z,99.90
2019-03-19T00:23:19.889Z,99.90
2019-03-19T00:25:45.915Z,99.90
2019-03-19T00:28:11.944Z,99.90
2019-03-19T00:30:37.978Z,99.90
2019-03-19T00:33:04.348Z,99.90
2019-03-19T00:35:30.366Z,99.90
2019-03-19T00:37:56.395Z,99.90
2019-03-19T00:40:22.398Z,99.90
2019-03-19T00:42:48.446Z,99.90
2019-03-19T00:45:14.458Z,99.90
2019-03-19T00:47:40.466Z,99.90
2019-03-19T00:50:08.178Z,99.90
2019-03-19T00:52:34.202Z,99.90
2019-03-19T00:55:00.528Z,99.90
2019-03-19T00:57:26.525Z,99.90
2019-03-19T00:59:52.533Z,99.90
2019-03-19T01:02:18.808Z,99.90
2019-03-19T01:04:44.821Z,99.90
2019-03-19T01:07:10.832Z,99.90
2019-03-19T01:09:36.850Z,99.90
2019-03-19T01:12:03.113Z,99.90
2019-03-19T01:14:29.125Z,99.90
2019-03-19T01:16:55.159Z,99.90
2019-03-19T01:19:21.190Z,99.90
2019-03-19T01:21:47.513Z,99.90
2019-03-19T01:24:13.537Z,99.90
2019-03-19T01:26:39.551Z,99.90
2019-03-19T01:29:05.581Z,99.90
2019-03-19T01:31:31.591Z,99.90
2019-03-19T01:33:57.597Z,99.90
2019-03-19T01:36:23.856Z,99.90
2019-03-19T01:38:50.189Z,99.90
2019-03-19T01:41:16.206Z,99.90
2019-03-19T01:43:42.554Z,99.90
2019-03-19T01:46:08.880Z,99.90
2019-03-19T01:48:34.892Z,99.90
2019-03-19T01:51:00.916Z,99.90
2019-03-19T01:53:26.906Z,99.90
2019-03-19T01:55:52.918Z,99.90
2019-03-19T01:58:19.202Z,99.90
2019-03-19T02:00:45.232Z,99.90
2019-03-19T02:03:11.761Z,99.90
2019-03-19T02:05:37.765Z,99.90
2019-03-19T02:08:03.790Z,99.90
2019-03-19T02:10:30.043Z,99.90
2019-03-19T02:12:56.057Z,99.90
2019-03-19T02:15:22.061Z,99.90
2019-03-19T02:17:48.314Z,99.90
2019-03-19T02:20:15.679Z,99.90
2019-03-19T02:22:41.702Z,99.90
2019-03-19T02:25:09.214Z,99.90
2019-03-19T02:27:35.237Z,99.90
2019-03-19T02:30:01.238Z,99.90
2019-03-19T02:32:27.546Z,99.90
2019-03-19T02:34:53.870Z,99.90
2019-03-19T02:37:19.884Z,99.90
2019-03-19T02:39:45.894Z,99.90
2019-03-19T02:42:12.152Z,99.90
2019-03-19T02:44:38.162Z,99.90
2019-03-19T02:47:04.200Z,99.90
2019-03-19T02:49:30.436Z,99.90
2019-03-19T02:51:56.766Z,99.90
2019-03-19T02:54:22.783Z,99.90
2019-03-19T02:56:48.787Z,99.90
2019-03-19T02:59:14.845Z,99.90
2019-03-19T03:01:40.934Z,99.90
2019-03-19T03:04:06.942Z,99.90
2019-03-19T03:06:33.238Z,99.90
2019-03-19T03:08:59.547Z,99.90
2019-03-19T03:11:25.560Z,99.90
2019-03-19T03:13:51.904Z,99.90
2019-03-19T03:16:17.917Z,99.90
2019-03-19T03:18:43.952Z,99.90
2019-03-19T03:21:09.976Z,99.90
2019-03-19T03:23:35.995Z,99.90
2019-03-19T03:26:02.023Z,99.90
2019-03-19T03:28:28.280Z,99.90
2019-03-19T03:30:54.300Z,99.90
2019-03-19T03:33:20.326Z,99.90
2019-03-19T03:35:46.446Z,99.90
2019-03-19T03:38:12.758Z,99.90
2019-03-19T03:40:38.793Z,99.90
2019-03-19T03:43:05.128Z,99.90
2019-03-19T03:45:31.159Z,99.90
2019-03-19T03:47:57.154Z,99.90
2019-03-19T03:50:23.184Z,99.90
2019-03-19T03:52:49.191Z,99.90
2019-03-19T03:55:17.637Z,99.90
2019-03-19T03:57:43.919Z,99.90
2019-03-19T04:00:12.355Z,99.90
2019-03-19T04:02:38.474Z,99.90
2019-03-19T04:05:06.604Z,99.90
2019-03-19T04:07:32.862Z,99.90
2019-03-19T04:09:58.880Z,99.90
2019-03-19T04:12:24.901Z,99.90
2019-03-19T04:14:50.912Z,99.90
2019-03-19T04:17:16.947Z,99.90
2019-03-19T04:19:42.955Z,99.90
2019-03-19T04:22:09.083Z,99.90
2019-03-19T04:24:35.088Z,99.90
2019-03-19T04:27:14.854Z,99.90
2019-03-19T04:29:29.316Z,99.90
2019-03-19T04:31:55.638Z,99.90
2019-03-19T04:34:21.648Z,99.90
2019-03-19T04:36:47.687Z,99.90
2019-03-19T04:39:13.701Z,99.90
2019-03-19T04:41:39.711Z,99.90
2019-03-19T04:44:05.740Z,99.90
2019-03-19T04:46:31.757Z,99.90
2019-03-19T04:48:57.785Z,99.90
2019-03-19T04:51:23.802Z,99.90
2019-03-19T04:53:49.820Z,99.90
2019-03-19T04:56:15.833Z,99.90
2019-03-19T04:58:41.854Z,99.90
2019-03-19T05:01:07.875Z,99.90
2019-03-19T05:03:33.891Z,99.90
2019-03-19T05:06:00.185Z,99.90
2019-03-19T05:08:26.212Z,99.90
2019-03-19T05:10:52.546Z,99.90
2019-03-19T05:13:18.599Z,99.90
2019-03-19T05:15:44.599Z,99.90
2019-03-19T05:18:10.623Z,99.90
2019-03-19T05:20:36.646Z,99.90
2019-03-19T05:23:02.670Z,99.90
2019-03-19T05:25:28.688Z,99.90
2019-03-19T05:27:54.711Z,99.90
2019-03-19T05:30:21.172Z,99.90
2019-03-19T05:32:47.182Z,99.90
2019-03-19T05:35:13.199Z,99.90
2019-03-19T05:37:39.530Z,99.90
2019-03-19T05:40:12.584Z,99.90
2019-03-19T05:42:38.857Z,99.90
2019-03-19T05:45:08.280Z,99.90
2019-03-19T05:47:38.227Z,99.90
2019-03-19T05:50:03.842Z,99.90
2019-03-19T05:52:29.849Z,99.90
2019-03-19T05:54:56.114Z,99.90
2019-03-19T05:57:22.140Z,99.90
2019-03-19T05:59:48.163Z,99.90
2019-03-19T06:02:14.177Z,99.90
2019-03-19T06:04:40.190Z,99.90
2019-03-19T06:07:06.565Z,99.90
2019-03-19T06:09:32.575Z,99.90
2019-03-19T06:11:58.597Z,99.90
2019-03-19T06:14:24.627Z,99.90
2019-03-19T06:16:50.645Z,99.90
2019-03-19T06:19:16.662Z,95.60
2019-03-19T06:21:42.696Z,87.90
2019-03-19T06:24:08.719Z,78.10
2019-03-19T06:26:34.751Z,72.30
2019-03-19T06:29:00.774Z,73.80
2019-03-19T06:31:26.805Z,72.60
2019-03-19T06:33:52.923Z,75.30
2019-03-19T06:36:18.942Z,75.10
2019-03-19T06:38:44.975Z,70.90
2019-03-19T06:41:10.997Z,63.20
2019-03-19T06:43:37.022Z,56.60
2019-03-19T06:46:03.232Z,55.60
2019-03-19T06:48:29.293Z,53.70
2019-03-19T06:50:55.311Z,50.90
2019-03-19T06:53:21.636Z,48.60
2019-03-19T06:55:47.643Z,45.20
2019-03-19T06:58:13.669Z,41.80
2019-03-19T07:00:39.684Z,40.70
2019-03-19T07:03:05.703Z,39.20
2019-03-19T07:05:32.067Z,38.30
2019-03-19T07:07:58.078Z,37.40
2019-03-19T07:10:24.421Z,36.40
2019-03-19T07:12:50.459Z,35.90
2019-03-19T07:15:17.375Z,35.20
2019-03-19T07:17:43.399Z,35.00
2019-03-19T07:20:11.718Z,34.90
2019-03-19T07:22:37.985Z,34.40
2019-03-19T07:25:05.021Z,33.30
2019-03-19T07:27:31.076Z,33.00
2019-03-19T07:29:57.425Z,33.10
2019-03-19T07:32:23.754Z,33.20
2019-03-19T07:34:49.782Z,32.10
2019-03-19T07:37:15.808Z,31.90
2019-03-19T07:39:41.861Z,31.30
2019-03-19T07:42:07.872Z,32.80
2019-03-19T07:44:34.186Z,31.20
2019-03-19T07:47:00.204Z,30.40
2019-03-19T07:49:26.223Z,30.20
2019-03-19T07:51:53.476Z,30.20
2019-03-19T07:54:19.956Z,30.00
2019-03-19T07:56:45.976Z,29.60
2019-03-19T07:59:11.988Z,30.00
2019-03-19T08:01:38.298Z,30.00
2019-03-19T08:04:05.141Z,29.40
2019-03-19T08:06:32.773Z,29.70
2019-03-19T08:08:59.008Z,29.00
2019-03-19T08:11:25.267Z,30.00
2019-03-19T08:13:51.280Z,29.70
2019-03-19T08:16:27.042Z,29.90
2019-03-19T08:18:45.227Z,29.40
2019-03-19T08:21:11.453Z,29.10
2019-03-19T08:23:37.734Z,29.60
2019-03-19T08:26:04.089Z,28.90
2019-03-19T08:28:30.189Z,28.50
2019-03-19T08:30:56.532Z,28.70
2019-03-19T08:33:22.795Z,28.30
2019-03-19T08:35:48.808Z,28.30
2019-03-19T08:38:14.839Z,28.30
2019-03-19T08:40:41.143Z,28.20
2019-03-19T08:43:07.166Z,28.40
2019-03-19T08:45:33.188Z,28.70
2019-03-19T08:47:59.216Z,29.80
2019-03-19T08:50:25.239Z,28.40
2019-03-19T08:52:51.568Z,29.30
2019-03-19T08:55:17.705Z,29.90
2019-03-19T08:57:43.707Z,30.00
2019-03-19T09:00:16.539Z,30.90
2019-03-19T09:02:42.559Z,32.20
2019-03-19T09:05:08.778Z,31.40
2019-03-19T09:07:34.833Z,34.00
2019-03-19T09:10:00.958Z,36.20
2019-03-19T09:12:27.004Z,35.80
2019-03-19T09:14:53.370Z,35.40
2019-03-19T09:17:19.381Z,34.90
2019-03-19T09:19:45.439Z,35.00
2019-03-19T09:22:11.451Z,37.20
2019-03-19T09:24:37.473Z,38.50
2019-03-19T09:27:03.824Z,38.60
2019-03-19T09:29:29.941Z,39.10
2019-03-19T09:31:55.946Z,38.70
2019-03-19T09:34:21.966Z,38.10
2019-03-19T09:36:57.030Z,38.60
2019-03-19T09:39:15.951Z,38.80
2019-03-19T09:41:41.962Z,38.10
2019-03-19T09:44:08.003Z,37.70
2019-03-19T09:46:34.018Z,38.40
2019-03-19T09:49:00.401Z,37.80
2019-03-19T09:51:26.412Z,37.10
2019-03-19T09:53:52.413Z,37.30
2019-03-19T09:56:18.751Z,36.80
2019-03-19T09:58:44.759Z,35.50
2019-03-19T10:01:10.929Z,35.40
2019-03-19T10:03:36.946Z,36.00
2019-03-19T10:06:13.604Z,36.60
2019-03-19T10:08:31.090Z,36.20
2019-03-19T10:10:57.099Z,35.90
2019-03-19T10:13:23.118Z,35.10
2019-03-19T10:15:49.129Z,34.60
2019-03-19T10:18:15.168Z,34.50
2019-03-19T10:20:41.165Z,34.20
2019-03-19T10:23:07.194Z,33.60
2019-03-19T10:25:33.203Z,34.20
2019-03-19T10:27:59.235Z,36.10
2019-03-19T10:30:25.255Z,37.20
2019-03-19T10:32:51.675Z,37.40
2019-03-19T10:35:18.092Z,37.10
2019-03-19T10:37:44.320Z,37.10
2019-03-19T10:40:13.040Z,37.50
2019-03-19T10:42:39.059Z,38.00
2019-03-19T10:45:13.777Z,38.30
2019-03-19T10:47:39.903Z,37.70
2019-03-19T10:50:12.858Z,36.60
2019-03-19T10:52:38.858Z,36.70
2019-03-19T10:55:05.681Z,37.40
2019-03-19T10:57:31.691Z,37.20
2019-03-19T11:00:15.635Z,35.90
2019-03-19T11:02:41.691Z,34.70
2019-03-19T11:05:10.709Z,35.20
2019-03-19T11:07:36.830Z,35.50
2019-03-19T11:10:06.328Z,36.10
2019-03-19T11:12:32.719Z,36.30
2019-03-19T11:14:58.739Z,36.40
2019-03-19T11:17:24.746Z,35.70
2019-03-19T11:19:50.787Z,35.80
2019-03-19T11:22:16.896Z,35.60
2019-03-19T11:24:42.904Z,36.60
2019-03-19T11:27:08.922Z,36.10
2019-03-19T11:29:34.935Z,35.70
2019-03-19T11:32:01.028Z,36.50
2019-03-19T11:34:27.087Z,37.00
2019-03-19T11:36:57.812Z,38.10
2019-03-19T11:39:21.089Z,36.70
2019-03-19T11:41:47.794Z,36.60
2019-03-19T11:44:13.807Z,35.40
2019-03-19T11:46:39.875Z,35.60
2019-03-19T11:49:06.169Z,36.40
2019-03-19T11:51:32.206Z,36.20
2019-03-19T11:53:58.261Z,35.80
2019-03-19T11:56:24.317Z,36.00
2019-03-19T11:58:50.344Z,36.90
2019-03-19T12:01:17.335Z,35.10
2019-03-19T12:03:43.627Z,35.50
2019-03-19T12:06:09.960Z,34.70
2019-03-19T12:08:36.128Z,36.80
2019-03-19T12:11:02.573Z,37.90
2019-03-19T12:13:28.695Z,38.90
2019-03-19T12:15:55.037Z,38.50
2019-03-19T12:18:21.138Z,37.90
2019-03-19T12:20:47.143Z,38.30
2019-03-19T12:23:13.581Z,37.70
2019-03-19T12:25:39.600Z,37.50
2019-03-19T12:28:05.645Z,37.10
2019-03-19T12:30:31.674Z,37.10
2019-03-19T12:32:57.706Z,37.30
2019-03-19T12:35:23.754Z,36.40
2019-03-19T12:37:49.787Z,36.90
2019-03-19T12:40:19.636Z,38.20
2019-03-19T12:42:45.659Z,38.30
2019-03-19T12:45:16.407Z,37.80
2019-03-19T12:47:42.542Z,38.50
2019-03-19T12:50:11.535Z,38.80
2019-03-19T12:52:37.599Z,39.50
2019-03-19T12:55:04.924Z,40.10
2019-03-19T12:57:30.947Z,40.40
2019-03-19T12:59:57.035Z,40.10
2019-03-19T13:02:23.058Z,39.60
2019-03-19T13:04:49.089Z,38.50
2019-03-19T13:07:15.120Z,38.70
2019-03-19T13:09:41.141Z,38.20
2019-03-19T13:12:07.190Z,37.50
2019-03-19T13:14:33.247Z,37.40
2019-03-19T13:16:59.246Z,37.00
2019-03-19T13:19:25.387Z,37.20
2019-03-19T13:21:51.530Z,36.80
2019-03-19T13:24:17.591Z,37.10
2019-03-19T13:26:43.747Z,38.00
2019-03-19T13:29:09.903Z,37.00
2019-03-19T13:31:36.031Z,37.50
2019-03-19T13:34:02.159Z,37.20
2019-03-19T13:36:28.183Z,37.30
2019-03-19T13:38:54.258Z,36.30
2019-03-19T13:41:20.281Z,37.50
2019-03-19T13:43:46.607Z,37.80
2019-03-19T13:46:13.561Z,37.60
2019-03-19T13:48:39.599Z,37.40
2019-03-19T13:51:05.653Z,37.20
2019-03-19T13:53:31.714Z,37.00
2019-03-19T13:55:57.779Z,37.90
2019-03-19T13:58:23.778Z,38.50
2019-03-19T14:00:55.639Z,37.50
2019-03-19T14:03:17.760Z,37.90
2019-03-19T14:05:43.756Z,38.10
2019-03-19T14:08:09.841Z,38.00
2019-03-19T14:10:36.164Z,37.80
2019-03-19T14:13:02.193Z,37.90
2019-03-19T14:15:28.215Z,37.80
2019-03-19T14:17:54.568Z,38.50
2019-03-19T14:20:20.680Z,38.20
2019-03-19T14:22:46.724Z,37.70
2019-03-19T14:25:14.023Z,37.10
2019-03-19T14:27:40.193Z,37.00
2019-03-19T14:30:15.495Z,37.10
2019-03-19T14:32:41.531Z,36.10
2019-03-19T14:35:07.955Z,36.40
2019-03-19T14:37:33.964Z,36.50
2019-03-19T14:39:59.999Z,36.70
2019-03-19T14:42:26.023Z,36.60
2019-03-19T14:44:52.056Z,36.90
2019-03-19T14:47:18.071Z,36.30
2019-03-19T14:49:47.124Z,36.40
2019-03-19T14:52:12.335Z,36.40
2019-03-19T14:54:38.366Z,36.30
2019-03-19T14:57:04.375Z,36.00
2019-03-19T14:59:30.402Z,36.30
2019-03-19T15:01:56.422Z,36.80
2019-03-19T15:04:22.716Z,37.10
2019-03-19T15:06:48.729Z,37.40
2019-03-19T15:09:15.079Z,36.00
2019-03-19T15:11:41.086Z,35.90
2019-03-19T15:14:07.219Z,35.90
2019-03-19T15:16:33.356Z,36.20
2019-03-19T15:18:59.433Z,36.10
2019-03-19T15:21:25.445Z,36.80
2019-03-19T15:23:51.495Z,37.40
2019-03-19T15:26:17.520Z,37.30
2019-03-19T15:28:43.564Z,36.80
2019-03-19T15:31:09.577Z,36.00
2019-03-19T15:33:35.607Z,36.50
2019-03-19T15:36:02.041Z,35.30
2019-03-19T15:38:28.079Z,36.80
2019-03-19T15:40:54.113Z,37.80
2019-03-19T15:43:20.136Z,38.30
2019-03-19T15:45:46.450Z,38.90
2019-03-19T15:48:12.470Z,38.00
2019-03-19T15:50:38.494Z,38.70
2019-03-19T15:53:04.742Z,38.70
2019-03-19T15:55:30.759Z,38.80
2019-03-19T15:57:56.778Z,38.70
2019-03-19T16:00:22.803Z,38.50
2019-03-19T16:02:49.234Z,37.80
2019-03-19T16:05:15.241Z,39.00
2019-03-19T16:07:41.973Z,39.10
2019-03-19T16:10:11.789Z,37.50
2019-03-19T16:12:38.150Z,38.80
2019-03-19T16:15:08.067Z,39.30
2019-03-19T16:17:34.099Z,39.60
2019-03-19T16:20:00.129Z,39.30
2019-03-19T16:22:26.761Z,39.00
2019-03-19T16:24:52.778Z,38.90
2019-03-19T16:27:18.794Z,38.70
2019-03-19T16:29:44.824Z,38.90
2019-03-19T16:32:10.935Z,39.30
2019-03-19T16:34:37.999Z,39.60
2019-03-19T16:37:04.017Z,39.80
2019-03-19T16:39:30.053Z,40.30
2019-03-19T16:41:56.105Z,40.40
2019-03-19T16:44:22.343Z,40.30
2019-03-19T16:46:48.354Z,41.00
2019-03-19T16:49:14.655Z,41.70
2019-03-19T16:51:42.668Z,41.80
2019-03-19T16:54:08.710Z,42.20
2019-03-19T16:56:34.731Z,42.40
2019-03-19T16:59:00.777Z,42.50
2019-03-19T17:01:26.758Z,43.00
2019-03-19T17:03:53.017Z,42.90
2019-03-19T17:06:19.295Z,43.40
2019-03-19T17:08:45.315Z,43.50
2019-03-19T17:11:11.644Z,44.00
2019-03-19T17:13:37.890Z,43.90
2019-03-19T17:16:04.301Z,43.80
2019-03-19T17:18:30.332Z,44.00
2019-03-19T17:20:56.562Z,44.50
2019-03-19T17:23:22.597Z,44.90
2019-03-19T17:25:48.845Z,45.40
2019-03-19T17:28:22.364Z,45.40
2019-03-19T17:30:42.786Z,45.70
2019-03-19T17:33:08.805Z,46.10
2019-03-19T17:35:34.829Z,46.40
2019-03-19T17:38:00.852Z,46.60
2019-03-19T17:40:26.883Z,46.60
2019-03-19T17:42:52.890Z,47.00
2019-03-19T17:45:19.019Z,47.50
2019-03-19T17:47:45.226Z,47.60
2019-03-19T17:50:18.179Z,47.90
2019-03-19T17:52:44.883Z,48.00
2019-03-19T17:55:11.448Z,48.50
2019-03-19T17:57:37.462Z,48.70
2019-03-19T18:00:07.220Z,49.10
2019-03-19T18:02:33.255Z,49.30
2019-03-19T18:04:59.258Z,49.50
2019-03-19T18:07:25.305Z,49.70
2019-03-19T18:09:51.335Z,50.30
2019-03-19T18:12:17.372Z,50.60
2019-03-19T18:14:43.408Z,50.90
2019-03-19T18:17:09.768Z,51.00
2019-03-19T18:19:35.775Z,51.70
2019-03-19T18:22:01.823Z,52.10
2019-03-19T18:24:27.840Z,52.90
2019-03-19T18:26:53.862Z,53.70
2019-03-19T18:29:19.891Z,54.50
2019-03-19T18:31:45.938Z,55.20
2019-03-19T18:34:11.962Z,56.00
2019-03-19T18:36:38.006Z,56.10
2019-03-19T18:39:06.458Z,56.30
2019-03-19T18:41:32.768Z,57.00
2019-03-19T18:43:58.797Z,57.50
2019-03-19T18:46:25.071Z,57.70
2019-03-19T18:48:51.091Z,58.20
2019-03-19T18:51:17.137Z,58.70
2019-03-19T18:53:43.171Z,59.30
2019-03-19T18:56:09.315Z,59.80
2019-03-19T18:58:35.673Z,60.30
2019-03-19T19:01:01.699Z,61.10
2019-03-19T19:03:27.715Z,62.50
2019-03-19T19:05:54.033Z,62.90
2019-03-19T19:08:20.060Z,62.70
2019-03-19T19:10:46.088Z,63.30
2019-03-19T19:13:12.105Z,63.40
2019-03-19T19:15:38.157Z,64.60
2019-03-19T19:18:04.190Z,65.10
2019-03-19T19:20:30.227Z,65.80
2019-03-19T19:22:56.516Z,66.30
2019-03-19T19:25:23.552Z,67.60
2019-03-19T19:27:49.565Z,68.50
2019-03-19T19:30:20.645Z,68.90
2019-03-19T19:32:46.882Z,69.60
2019-03-19T19:35:12.944Z,69.80
2019-03-19T19:37:39.090Z,69.60
2019-03-19T19:40:16.254Z,69.20
2019-03-19T19:42:42.319Z,69.70
2019-03-19T19:45:10.899Z,70.40
2019-03-19T19:47:37.175Z,70.50
2019-03-19T19:50:06.986Z,71.30
2019-03-19T19:52:33.020Z,71.70
2019-03-19T19:54:59.047Z,72.40
2019-03-19T19:57:25.084Z,73.40
2019-03-19T19:59:51.137Z,74.70
2019-03-19T20:02:17.151Z,76.10
2019-03-19T20:04:43.175Z,77.50
2019-03-19T20:07:09.529Z,78.10
2019-03-19T20:09:35.544Z,78.00
2019-03-19T20:12:01.570Z,77.80
2019-03-19T20:14:27.583Z,78.00
2019-03-19T20:16:53.678Z,79.70
2019-03-19T20:19:20.077Z,79.70
2019-03-19T20:21:46.100Z,79.60
2019-03-19T20:24:12.102Z,79.90
2019-03-19T20:26:38.131Z,78.80
2019-03-19T20:29:04.130Z,77.90
2019-03-19T20:31:30.187Z,77.80
2019-03-19T20:33:56.426Z,77.70
2019-03-19T20:36:22.451Z,77.60
2019-03-19T20:38:48.779Z,77.90
2019-03-19T20:41:14.885Z,78.20
2019-03-19T20:43:40.934Z,78.10
2019-03-19T20:46:06.941Z,77.10
2019-03-19T20:48:32.961Z,77.10
2019-03-19T20:50:58.988Z,77.20
2019-03-19T20:53:25.523Z,79.30
2019-03-19T20:55:51.549Z,81.50
2019-03-19T20:58:17.630Z,82.20
2019-03-19T21:00:43.716Z,83.30
2019-03-19T21:03:09.765Z,84.60
2019-03-19T21:05:35.759Z,86.60
2019-03-19T21:08:01.871Z,85.60
2019-03-19T21:10:27.905Z,85.60
2019-03-19T21:12:53.910Z,84.60
2019-03-19T21:15:24.066Z,85.60
2019-03-19T21:17:50.095Z,86.40
2019-03-19T21:20:16.214Z,86.00
2019-03-19T21:22:42.222Z,86.90
2019-03-19T21:25:08.452Z,87.50
2019-03-19T21:27:34.550Z,87.80
2019-03-19T21:30:00.819Z,88.10
2019-03-19T21:32:26.953Z,87.90
2019-03-19T21:34:53.059Z,87.40
2019-03-19T21:37:19.107Z,86.50
2019-03-19T21:39:45.136Z,87.40
2019-03-19T21:42:11.183Z,87.50
2019-03-19T21:44:37.196Z,88.10
2019-03-19T21:47:03.232Z,88.00
2019-03-19T21:49:29.247Z,88.70
2019-03-19T21:51:55.503Z,89.30
2019-03-19T21:54:21.524Z,89.60
2019-03-19T21:56:47.551Z,89.90
2019-03-19T21:59:13.564Z,90.50
2019-03-19T22:01:39.594Z,91.40
2019-03-19T22:04:05.613Z,92.10
2019-03-19T22:06:31.995Z,92.80
2019-03-19T22:08:58.016Z,93.40
2019-03-19T22:11:24.046Z,94.70
2019-03-19T22:13:50.071Z,95.40
2019-03-19T22:16:16.115Z,96.10
2019-03-19T22:18:42.136Z,96.60
2019-03-19T22:21:08.446Z,97.40
2019-03-19T22:23:34.471Z,96.60
2019-03-19T22:26:00.488Z,96.90
2019-03-19T22:28:26.519Z,98.10
2019-03-19T22:30:52.525Z,98.90
2019-03-19T22:33:18.558Z,99.50
2019-03-19T22:35:44.899Z,99.20
2019-03-19T22:38:10.951Z,99.60
2019-03-19T22:40:37.256Z,99.90
2019-03-19T22:43:03.380Z,99.90
2019-03-19T22:45:29.385Z,99.90
2019-03-19T22:47:55.415Z,99.90
2019-03-19T22:50:21.446Z,99.90
2019-03-19T22:52:47.783Z,99.90
2019-03-19T22:55:14.393Z,99.90
2019-03-19T22:57:41.037Z,99.90
2019-03-19T23:00:11.145Z,99.90
2019-03-19T23:02:37.191Z,99.90
2019-03-19T23:05:05.105Z,98.90
2019-03-19T23:07:31.132Z,99.00
2019-03-19T23:09:57.432Z,99.40
2019-03-19T23:12:23.442Z,99.90
2019-03-19T23:14:51.407Z,99.90
2019-03-19T23:17:17.423Z,99.90
2019-03-19T23:19:43.441Z,99.90
2019-03-19T23:22:09.451Z,99.90
2019-03-19T23:24:35.466Z,99.90
2019-03-19T23:27:01.524Z,99.90
2019-03-19T23:29:27.543Z,99.90
2019-03-19T23:31:53.892Z,99.90
2019-03-19T23:34:19.916Z,99.90
2019-03-19T23:36:45.931Z,99.90
2019-03-19T23:39:12.283Z,99.90
2019-03-19T23:41:38.295Z,99.90
2019-03-19T23:44:04.626Z,99.90
2019-03-19T23:46:30.958Z,99.90
2019-03-19T23:48:57.323Z,99.90
2019-03-19T23:51:23.324Z,99.90
2019-03-19T23:53:49.359Z,99.90
2019-03-19T23:56:15.673Z,99.90
2019-03-19T23:58:41.695Z,99.90
